Milbank, South Dakota
Current Conditions -  °F | °C
As of 9:54 PM on Wednesday 22 Oct 2014 (Local Time) from KVVV Reporting Station
Overcast Overcast  
Wind Chill: 13°   Ceiling: 4800
Heat Index: 13°   Visibility: 10mi
Dew Point: 11°   Wind: 3mph
Humidity: 88%   Direction: 300°WNW
Pressure: 29.95"   Gusts: NA
Location:  45.22°N, 96.63°W
Report Text: KVVV 230254Z AUTO 30003KT 10SM SCT015 OVC048 13/11 A2995 RMK AO2
Loading
Personal Weather Stations






























Interactive Weather Map
Tropical Storm Tracking
New forecast layout! Learn more

10-Day Weather Forecast

Advertisements
Track Severe Weather on mobile